B837A ZUGH-ZUUU
Flight info
| Callsign | B837A |
|---|---|
| Flight time | 0h 56m |
| Altitude | 10000 |
| Route | CROSS COUNTRY VISUAL |
| Aircraft | SR2T/L-SDE3/L |
Departure
| Time | 2026-05-04 08:31 |
|---|---|
| Airport | Guanghan Airport (ZUGH) |
Arrival
| Time | 2026-05-04 09:27 |
|---|---|
| Airport | Chengdu Shuangliu International Airport (ZUUU) |
| Time | Latitude | Longitude | Altitude | Speed | Heading |
|---|---|---|---|---|---|
| 2026-05-04 08:10 | 30.94976 | 104.32362 | 1540 ft | 0 kts | 216° |
| 2026-05-04 08:27 | 30.95330 | 104.32031 | 1543 ft | 18 kts | 350° |
| 2026-05-04 08:28 | 30.95341 | 104.32029 | 1543 ft | 0 kts | 351° |
| 2026-05-04 08:31 | 30.93886 | 104.34329 | 2135 ft | 100 kts | 130° |
| 2026-05-04 08:33 | 30.93309 | 104.39342 | 4358 ft | 137 kts | 41° |
| 2026-05-04 08:33 | 30.94061 | 104.40042 | 4770 ft | 137 kts | 39° |
| 2026-05-04 08:35 | 30.99425 | 104.36569 | 5634 ft | 135 kts | 263° |
| 2026-05-04 08:35 | 30.98787 | 104.35857 | 5585 ft | 134 kts | 207° |
| 2026-05-04 08:35 | 30.97962 | 104.35377 | 5688 ft | 130 kts | 204° |
| 2026-05-04 08:35 | 30.97168 | 104.34903 | 5776 ft | 129 kts | 206° |
| 2026-05-04 08:37 | 30.92699 | 104.30626 | 5360 ft | 145 kts | 221° |
| 2026-05-04 08:37 | 30.91956 | 104.29802 | 5286 ft | 149 kts | 221° |
| 2026-05-04 08:37 | 30.91213 | 104.28973 | 5253 ft | 146 kts | 221° |
| 2026-05-04 08:38 | 30.90498 | 104.28150 | 5253 ft | 143 kts | 221° |
| 2026-05-04 08:38 | 30.90029 | 104.27614 | 5246 ft | 142 kts | 221° |
| 2026-05-04 08:38 | 30.89317 | 104.26810 | 5230 ft | 142 kts | 221° |
| 2026-05-04 08:40 | 30.84469 | 104.21235 | 5236 ft | 137 kts | 222° |
| 2026-05-04 08:40 | 30.83790 | 104.20455 | 5238 ft | 136 kts | 222° |
| 2026-05-04 08:40 | 30.83119 | 104.19676 | 5241 ft | 137 kts | 222° |
| 2026-05-04 08:41 | 30.82224 | 104.18657 | 5243 ft | 136 kts | 221° |
| 2026-05-04 08:41 | 30.81773 | 104.18145 | 5250 ft | 138 kts | 221° |
| 2026-05-04 08:41 | 30.81086 | 104.17366 | 5239 ft | 138 kts | 220° |
| 2026-05-04 08:41 | 30.80399 | 104.16588 | 5252 ft | 138 kts | 221° |
| 2026-05-04 08:42 | 30.79710 | 104.15805 | 5252 ft | 139 kts | 221° |
| 2026-05-04 08:42 | 30.79007 | 104.15021 | 5256 ft | 139 kts | 221° |
| 2026-05-04 08:42 | 30.78303 | 104.14234 | 5256 ft | 142 kts | 221° |
| 2026-05-04 08:42 | 30.77578 | 104.13434 | 5255 ft | 144 kts | 218° |
| 2026-05-04 08:43 | 30.76771 | 104.12742 | 5249 ft | 143 kts | 213° |
| 2026-05-04 08:43 | 30.75966 | 104.12087 | 5245 ft | 140 kts | 212° |
| 2026-05-04 08:43 | 30.75159 | 104.11442 | 5252 ft | 142 kts | 212° |
| 2026-05-04 08:43 | 30.74337 | 104.10793 | 5250 ft | 143 kts | 213° |
| 2026-05-04 08:44 | 30.73516 | 104.10141 | 5245 ft | 142 kts | 212° |
| 2026-05-04 08:44 | 30.72736 | 104.09539 | 5246 ft | 140 kts | 210° |
| 2026-05-04 08:46 | 30.67761 | 104.04200 | 5242 ft | 139 kts | 216° |
| 2026-05-04 08:46 | 30.67017 | 104.03490 | 5238 ft | 138 kts | 216° |
| 2026-05-04 08:46 | 30.66282 | 104.02792 | 5239 ft | 135 kts | 216° |
| 2026-05-04 08:46 | 30.65561 | 104.02102 | 5240 ft | 132 kts | 215° |
| 2026-05-04 08:47 | 30.64848 | 104.01425 | 5237 ft | 132 kts | 216° |
| 2026-05-04 08:47 | 30.64132 | 104.00743 | 5237 ft | 134 kts | 216° |
| 2026-05-04 08:47 | 30.63413 | 104.00058 | 5242 ft | 134 kts | 216° |
| 2026-05-04 08:47 | 30.62694 | 103.99372 | 5240 ft | 134 kts | 216° |
| 2026-05-04 08:48 | 30.61975 | 103.98690 | 5236 ft | 133 kts | 216° |
| 2026-05-04 08:48 | 30.61257 | 103.98003 | 5245 ft | 135 kts | 216° |
| 2026-05-04 08:48 | 30.60527 | 103.97305 | 5244 ft | 137 kts | 216° |
| 2026-05-04 08:48 | 30.59792 | 103.96605 | 5245 ft | 136 kts | 216° |
| 2026-05-04 08:49 | 30.59071 | 103.95923 | 5250 ft | 135 kts | 216° |
| 2026-05-04 08:50 | 30.54147 | 103.92782 | 5240 ft | 135 kts | 196° |
| 2026-05-04 08:50 | 30.53267 | 103.92434 | 5240 ft | 131 kts | 196° |
| 2026-05-04 08:51 | 30.52414 | 103.92092 | 5243 ft | 129 kts | 197° |
| 2026-05-04 08:51 | 30.51551 | 103.91756 | 5244 ft | 133 kts | 194° |
| 2026-05-04 08:51 | 30.50647 | 103.91459 | 5244 ft | 137 kts | 194° |
| 2026-05-04 08:51 | 30.49725 | 103.91162 | 5265 ft | 139 kts | 192° |
| 2026-05-04 08:52 | 30.48771 | 103.90858 | 5248 ft | 143 kts | 193° |
| 2026-05-04 08:52 | 30.47792 | 103.90555 | 5242 ft | 149 kts | 193° |
| 2026-05-04 08:52 | 30.46789 | 103.90233 | 5245 ft | 149 kts | 193° |
| 2026-05-04 08:52 | 30.45811 | 103.89926 | 5257 ft | 143 kts | 192° |
| 2026-05-04 08:53 | 30.44863 | 103.89624 | 5243 ft | 144 kts | 193° |
| 2026-05-04 08:54 | 30.39888 | 103.91432 | 5231 ft | 151 kts | 262° |
| 2026-05-04 08:55 | 30.40192 | 103.90291 | 5228 ft | 150 kts | 297° |
| 2026-05-04 08:55 | 30.40701 | 103.89259 | 5248 ft | 148 kts | 297° |
| 2026-05-04 08:55 | 30.41197 | 103.88205 | 5115 ft | 153 kts | 296° |
| 2026-05-04 08:55 | 30.41776 | 103.87157 | 4991 ft | 159 kts | 312° |
| 2026-05-04 08:57 | 30.48932 | 103.89832 | 3500 ft | 165 kts | 49° |
| 2026-05-04 09:01 | 30.60336 | 103.95880 | 2737 ft | 123 kts | 24° |
| 2026-05-04 09:01 | 30.61161 | 103.96245 | 3074 ft | 129 kts | 21° |
| 2026-05-04 09:01 | 30.62006 | 103.96641 | 3435 ft | 132 kts | 21° |
| 2026-05-04 09:01 | 30.62872 | 103.97006 | 3784 ft | 137 kts | 18° |
| 2026-05-04 09:02 | 30.63773 | 103.97330 | 4186 ft | 133 kts | 22° |
| 2026-05-04 09:02 | 30.64663 | 103.97677 | 4540 ft | 137 kts | 20° |
| 2026-05-04 09:02 | 30.65558 | 103.98037 | 4930 ft | 135 kts | 20° |
| 2026-05-04 09:02 | 30.66477 | 103.98331 | 5253 ft | 140 kts | 12° |
| 2026-05-04 09:03 | 30.67406 | 103.98705 | 5583 ft | 138 kts | 17° |
| 2026-05-04 09:03 | 30.68312 | 103.98967 | 5954 ft | 137 kts | 14° |
| 2026-05-04 09:03 | 30.69254 | 103.99281 | 6117 ft | 149 kts | 26° |
| 2026-05-04 09:03 | 30.69974 | 104.00228 | 6002 ft | 166 kts | 74° |
| 2026-05-04 09:04 | 30.69924 | 104.01557 | 5891 ft | 174 kts | 115° |
| 2026-05-04 09:04 | 30.69074 | 104.02546 | 5799 ft | 177 kts | 156° |
| 2026-05-04 09:04 | 30.67919 | 104.02875 | 5696 ft | 168 kts | 168° |
| 2026-05-04 09:04 | 30.66829 | 104.03268 | 5573 ft | 161 kts | 158° |
| 2026-05-04 09:05 | 30.65899 | 104.03960 | 5450 ft | 158 kts | 141° |
| 2026-05-04 09:05 | 30.65094 | 104.04820 | 5323 ft | 156 kts | 139° |
| 2026-05-04 09:05 | 30.64300 | 104.05681 | 5202 ft | 157 kts | 139° |
| 2026-05-04 09:05 | 30.63502 | 104.06552 | 5083 ft | 157 kts | 139° |
| 2026-05-04 09:06 | 30.62705 | 104.07420 | 4961 ft | 156 kts | 139° |
| 2026-05-04 09:07 | 30.57733 | 104.12822 | 5238 ft | 138 kts | 138° |
| 2026-05-04 09:08 | 30.57035 | 104.13589 | 5240 ft | 138 kts | 139° |
| 2026-05-04 09:08 | 30.56334 | 104.14359 | 5256 ft | 140 kts | 138° |
| 2026-05-04 09:08 | 30.55614 | 104.15145 | 5245 ft | 143 kts | 139° |
| 2026-05-04 09:08 | 30.54896 | 104.15933 | 5252 ft | 141 kts | 139° |
| 2026-05-04 09:09 | 30.54182 | 104.16693 | 5244 ft | 141 kts | 138° |
| 2026-05-04 09:09 | 30.53471 | 104.17472 | 5251 ft | 141 kts | 139° |
| 2026-05-04 09:09 | 30.52750 | 104.18248 | 5246 ft | 142 kts | 139° |
| 2026-05-04 09:09 | 30.52037 | 104.19025 | 5240 ft | 141 kts | 139° |
| 2026-05-04 09:10 | 30.51324 | 104.19796 | 5244 ft | 140 kts | 139° |
| 2026-05-04 09:10 | 30.50447 | 104.20181 | 5241 ft | 140 kts | 183° |
| 2026-05-04 09:10 | 30.49541 | 104.19773 | 5241 ft | 144 kts | 213° |
| 2026-05-04 09:10 | 30.48989 | 104.18822 | 5237 ft | 146 kts | 249° |
| 2026-05-04 09:11 | 30.49036 | 104.17650 | 5251 ft | 153 kts | 286° |
| 2026-05-04 09:11 | 30.49457 | 104.16517 | 5241 ft | 151 kts | 290° |
| 2026-05-04 09:11 | 30.49858 | 104.15388 | 5244 ft | 150 kts | 288° |
| 2026-05-04 09:11 | 30.50251 | 104.14255 | 5243 ft | 152 kts | 289° |
| 2026-05-04 09:12 | 30.50645 | 104.13127 | 5258 ft | 151 kts | 289° |
| 2026-05-04 09:12 | 30.51056 | 104.11982 | 5254 ft | 155 kts | 288° |
| 2026-05-04 09:14 | 30.53905 | 104.03790 | 5252 ft | 157 kts | 289° |
| 2026-05-04 09:14 | 30.54308 | 104.02633 | 5245 ft | 152 kts | 289° |
| 2026-05-04 09:14 | 30.54703 | 104.01490 | 5237 ft | 154 kts | 288° |
| 2026-05-04 09:14 | 30.55104 | 104.00343 | 5243 ft | 154 kts | 288° |
| 2026-05-04 09:15 | 30.55506 | 103.99187 | 5247 ft | 154 kts | 288° |
| 2026-05-04 09:15 | 30.55900 | 103.98036 | 5244 ft | 153 kts | 287° |
| 2026-05-04 09:15 | 30.56289 | 103.96896 | 5247 ft | 153 kts | 288° |
| 2026-05-04 09:15 | 30.56680 | 103.95751 | 5244 ft | 151 kts | 288° |
| 2026-05-04 09:17 | 30.52524 | 103.94114 | 5259 ft | 141 kts | 156° |
| 2026-05-04 09:18 | 30.51626 | 103.94569 | 5248 ft | 140 kts | 156° |
| 2026-05-04 09:18 | 30.50745 | 103.95023 | 5240 ft | 138 kts | 156° |
| 2026-05-04 09:18 | 30.49876 | 103.95467 | 5243 ft | 135 kts | 156° |
| 2026-05-04 09:18 | 30.49024 | 103.95906 | 5241 ft | 133 kts | 156° |
| 2026-05-04 09:19 | 30.48174 | 103.96340 | 5236 ft | 133 kts | 157° |
| 2026-05-04 09:19 | 30.47321 | 103.96771 | 5248 ft | 134 kts | 156° |
| 2026-05-04 09:19 | 30.46433 | 103.97215 | 5084 ft | 142 kts | 156° |
| 2026-05-04 09:19 | 30.45517 | 103.97687 | 4906 ft | 146 kts | 156° |
| 2026-05-04 09:20 | 30.44596 | 103.98156 | 4724 ft | 144 kts | 156° |
| 2026-05-04 09:20 | 30.43669 | 103.98616 | 4525 ft | 145 kts | 157° |
| 2026-05-04 09:20 | 30.42728 | 103.99102 | 4340 ft | 150 kts | 156° |
| 2026-05-04 09:20 | 30.41702 | 103.99211 | 4143 ft | 155 kts | 195° |
| 2026-05-04 09:21 | 30.40918 | 103.98402 | 3924 ft | 158 kts | 243° |
| 2026-05-04 09:21 | 30.40912 | 103.97125 | 3732 ft | 166 kts | 285° |
| 2026-05-04 09:21 | 30.41361 | 103.95905 | 3556 ft | 165 kts | 295° |
| 2026-05-04 09:21 | 30.41908 | 103.94752 | 3422 ft | 159 kts | 296° |
| 2026-05-04 09:22 | 30.42434 | 103.93650 | 3364 ft | 153 kts | 296° |
| 2026-05-04 09:22 | 30.42938 | 103.92589 | 3298 ft | 151 kts | 295° |
| 2026-05-04 09:22 | 30.43435 | 103.91539 | 3272 ft | 147 kts | 296° |
| 2026-05-04 09:22 | 30.43936 | 103.90542 | 3271 ft | 139 kts | 300° |
| 2026-05-04 09:23 | 30.44442 | 103.89572 | 3287 ft | 141 kts | 299° |
| 2026-05-04 09:23 | 30.44958 | 103.88600 | 3264 ft | 142 kts | 307° |
| 2026-05-04 09:23 | 30.45831 | 103.88138 | 3258 ft | 142 kts | 6° |
| 2026-05-04 09:23 | 30.46693 | 103.88588 | 3277 ft | 136 kts | 36° |
| 2026-05-04 09:25 | 30.52293 | 103.92100 | 2799 ft | 135 kts | 22° |
| 2026-05-04 09:25 | 30.53172 | 103.92503 | 2515 ft | 135 kts | 30° |
| 2026-05-04 09:26 | 30.54012 | 103.92938 | 2339 ft | 129 kts | 21° |
| 2026-05-04 09:26 | 30.54812 | 103.93279 | 2060 ft | 117 kts | 22° |
| 2026-05-04 09:26 | 30.55490 | 103.93604 | 1926 ft | 94 kts | 20° |
| 2026-05-04 09:26 | 30.56062 | 103.93870 | 1738 ft | 84 kts | 20° |
| 2026-05-04 09:27 | 30.56563 | 103.94101 | 1646 ft | 68 kts | 19° |
| 2026-05-04 09:27 | 30.56957 | 103.94286 | 1641 ft | 57 kts | 23° |
| 2026-05-04 09:27 | 30.57304 | 103.94450 | 1640 ft | 51 kts | 21° |
| 2026-05-04 09:27 | 30.57612 | 103.94593 | 1640 ft | 45 kts | 26° |
| 2026-05-04 09:28 | 30.57885 | 103.94718 | 1642 ft | 40 kts | 22° |
| 2026-05-04 09:28 | 30.58115 | 103.94856 | 1642 ft | 36 kts | 41° |
| 2026-05-04 09:28 | 30.58238 | 103.95043 | 1642 ft | 17 kts | 106° |
| 2026-05-04 09:28 | 30.58170 | 103.95161 | 1642 ft | 18 kts | 68° |
| 2026-05-04 09:29 | 30.58096 | 103.95233 | 1642 ft | 21 kts | 201° |
| 2026-05-04 09:29 | 30.57974 | 103.95174 | 1642 ft | 18 kts | 202° |
| 2026-05-04 09:29 | 30.57857 | 103.95096 | 1642 ft | 21 kts | 202° |
| 2026-05-04 09:29 | 30.57709 | 103.95026 | 1642 ft | 25 kts | 204° |
| 2026-05-04 09:30 | 30.57544 | 103.94946 | 1642 ft | 27 kts | 200° |
| 2026-05-04 09:30 | 30.57369 | 103.94869 | 1642 ft | 28 kts | 201° |
| 2026-05-04 09:30 | 30.57185 | 103.94786 | 1642 ft | 29 kts | 202° |
| 2026-05-04 09:30 | 30.56996 | 103.94702 | 1642 ft | 29 kts | 199° |
| 2026-05-04 09:31 | 30.56815 | 103.94676 | 1642 ft | 26 kts | 129° |
| 2026-05-04 09:31 | 30.56744 | 103.94869 | 1641 ft | 26 kts | 113° |
| 2026-05-04 09:31 | 30.56670 | 103.94986 | 1641 ft | 12 kts | 204° |
| 2026-05-04 09:31 | 30.56620 | 103.94962 | 1641 ft | 3 kts | 201° |
| 2026-05-04 09:32 | 30.56618 | 103.94961 | 1641 ft | 0 kts | 201° |